Al-Kharj, Saudi Arabia

7:09 AM AST on November 28, 2014 (GMT +0300)
Riyadh Air Base | Change Station
CLOSE
Current Station
Airport
Location: Riyadh,
Elevation: 2034 ft
Nearby Weather Stations

Elev 2034 ft 24.71 °N, 46.73 °E | Updated 9 minutes ago

Scattered Clouds
Scattered Clouds
63 °F
Feels Like 63 °F
N
9
Wind Variable Wind from SSE

Today
High -- | Low -- °F
--% Chance of Precip.
Yesterday
High -- | Low -- °F
Precip. -- in
6:14 AM 5:02 PM
Waxing Crescent, 36% visible
Pressure 30.12 in
Visibility 6.2 miles
Clouds Scattered Clouds 8000 ft
Dew Point 48 °F
Humidity 59%
Rainfall 0.00 in
Snow Depth Not available.
UV 0 out of 12
Pollen Not available.
Air Quality Not available.
Flu Activity Not available.
METAR OERY 280400Z 16008KT 9999 SCT080 17/09 Q1020

More Conditions Fewer Conditions

Pressure 30.12 in
Visibility 6.2 miles
Clouds Scattered Clouds 8000 ft
Dew Point 48 °F
Humidity 59%
Rainfall 0.00 in
Snow Depth Not available.
UV 0 out of 12
Pollen Not available.
Air Quality Not available.
Flu Activity Not available.
METAR OERY 280400Z 16008KT 9999 SCT080 17/09 Q1020

More Conditions Fewer Conditions

10-Day Weather Forecast

Almanac

Astronomy

Nov. 28, 2014 Rise Set
Actual Time
Civil Twilight
Nautical Twilight
Astronomical Twilight
Moon
Length of Visible Light
Length of Day
Tomorrow will be .
, % of the Moon is Illuminated

Today's Extremes

Country Highs Country Lows

Community

WunderPhotos

Upload Photos

1,774,176 photos uploaded!

WunderBlogs® & News

Nearby

Air Quality

  Air Quality AQ Index Pollutant
Not available.

Snow Depth

Station Depth Elevation

Earthquake Activity

City Distance Mag. Time & Date
Minimum magnitude displayed is 2.5.

Coastal Water Temperatures

Place Temperature

Nearby Weather Stations